createdAt,value
2018-11-14T00:00:52.147Z,10.40
2018-11-14T00:03:23.527Z,10.50
2018-11-14T00:05:54.935Z,10.50
2018-11-14T00:08:26.358Z,10.50
2018-11-14T00:10:57.743Z,10.50
2018-11-14T00:13:29.151Z,10.40
2018-11-14T00:16:00.549Z,10.40
2018-11-14T00:18:31.920Z,10.40
2018-11-14T00:21:03.301Z,10.40
2018-11-14T00:23:34.698Z,10.40
2018-11-14T00:26:06.511Z,10.40
2018-11-14T00:28:37.937Z,10.40
2018-11-14T00:31:09.386Z,10.40
2018-11-14T00:33:40.764Z,10.30
2018-11-14T00:36:12.165Z,10.30
2018-11-14T00:38:43.558Z,10.30
2018-11-14T00:41:14.997Z,10.40
2018-11-14T00:43:46.376Z,10.30
2018-11-14T00:46:17.733Z,10.30
2018-11-14T00:48:49.064Z,10.20
2018-11-14T00:51:20.514Z,10.20
2018-11-14T00:53:51.921Z,10.20
2018-11-14T00:56:23.280Z,10.20
2018-11-14T00:58:54.941Z,10.10
2018-11-14T01:01:26.403Z,10.10
2018-11-14T01:03:58.126Z,10.10
2018-11-14T01:06:29.553Z,10.00
2018-11-14T01:09:00.924Z,10.00
2018-11-14T01:11:32.351Z,10.00
2018-11-14T01:14:03.826Z,10.00
2018-11-14T01:16:35.184Z,10.00
2018-11-14T01:19:08.085Z,10.00
2018-11-14T01:21:39.550Z,9.90
2018-11-14T01:24:11.016Z,9.90
2018-11-14T01:26:42.467Z,9.90
2018-11-14T01:29:13.877Z,9.80
2018-11-14T01:31:45.285Z,9.80
2018-11-14T01:34:17.561Z,9.90
2018-11-14T01:36:48.867Z,9.90
2018-11-14T01:39:20.330Z,9.90
2018-11-14T01:41:51.836Z,9.90
2018-11-14T01:44:23.216Z,9.90
2018-11-14T01:46:54.653Z,9.90
2018-11-14T01:49:26.124Z,9.90
2018-11-14T01:51:57.654Z,9.90
2018-11-14T01:54:29.089Z,9.90
2018-11-14T01:57:00.540Z,9.90
2018-11-14T01:59:31.953Z,9.90
2018-11-14T02:02:03.338Z,9.80
2018-11-14T02:04:34.856Z,9.80
2018-11-14T02:07:06.308Z,9.80
2018-11-14T02:09:37.848Z,9.70
2018-11-14T02:12:09.193Z,9.70
2018-11-14T02:14:40.617Z,9.70
2018-11-14T02:17:12.122Z,9.70
2018-11-14T02:19:43.547Z,9.70
2018-11-14T02:22:14.955Z,9.70
2018-11-14T02:24:46.409Z,9.70
2018-11-14T02:27:17.817Z,9.80
2018-11-14T02:29:49.295Z,9.80
2018-11-14T02:32:20.814Z,9.80
2018-11-14T02:34:52.249Z,9.80
2018-11-14T02:37:23.732Z,9.80
2018-11-14T02:39:55.046Z,9.80
2018-11-14T02:42:26.489Z,9.80
2018-11-14T02:44:57.917Z,9.80
2018-11-14T02:47:29.392Z,9.80
2018-11-14T02:50:00.794Z,9.80
2018-11-14T02:52:32.212Z,9.80
2018-11-14T02:55:03.602Z,9.80
2018-11-14T02:57:34.974Z,9.80
2018-11-14T03:00:09.478Z,9.80
2018-11-14T03:02:40.995Z,9.80
2018-11-14T03:05:12.486Z,9.80
2018-11-14T03:07:43.982Z,9.80
2018-11-14T03:10:18.255Z,9.70
2018-11-14T03:12:49.827Z,9.70
2018-11-14T03:15:22.402Z,9.70
2018-11-14T03:17:53.857Z,9.60
2018-11-14T03:20:25.277Z,9.60
2018-11-14T03:22:56.686Z,9.60
2018-11-14T03:25:28.117Z,9.50
2018-11-14T03:27:59.549Z,9.60
2018-11-14T03:30:30.970Z,9.60
2018-11-14T03:33:02.362Z,9.60
2018-11-14T03:35:38.960Z,9.50
2018-11-14T03:38:10.403Z,9.60
2018-11-14T03:40:41.829Z,9.60
2018-11-14T03:43:13.217Z,9.60
2018-11-14T03:45:44.681Z,9.50
2018-11-14T03:48:16.037Z,9.50
2018-11-14T03:50:47.425Z,9.50
2018-11-14T03:53:18.938Z,9.50
2018-11-14T03:55:50.358Z,9.50
2018-11-14T03:58:21.909Z,9.50
2018-11-14T04:00:53.426Z,9.60
2018-11-14T04:03:24.876Z,9.50
2018-11-14T04:05:56.302Z,9.60
2018-11-14T04:08:27.825Z,9.60
2018-11-14T04:10:59.203Z,9.60
2018-11-14T04:13:30.608Z,9.50
2018-11-14T04:16:02.027Z,9.50
2018-11-14T04:18:33.491Z,9.50
2018-11-14T04:21:04.962Z,9.40
2018-11-14T04:23:40.603Z,9.40
2018-11-14T04:26:12.043Z,9.40
2018-11-14T04:28:43.520Z,9.40
2018-11-14T04:31:14.980Z,9.40
2018-11-14T04:33:46.468Z,9.40
2018-11-14T04:36:17.929Z,9.30
2018-11-14T04:38:49.353Z,9.30
2018-11-14T04:41:20.849Z,9.40
2018-11-14T04:43:52.279Z,9.40
2018-11-14T04:46:23.722Z,9.40
2018-11-14T04:48:55.080Z,9.40
2018-11-14T04:51:26.704Z,9.40
2018-11-14T04:53:58.140Z,9.40
2018-11-14T04:56:29.562Z,9.40
2018-11-14T04:59:01.011Z,9.40
2018-11-14T05:01:32.427Z,9.30
2018-11-14T05:04:03.783Z,9.30
2018-11-14T05:06:35.145Z,9.20
2018-11-14T05:09:09.980Z,9.20
2018-11-14T05:11:41.971Z,9.20
2018-11-14T05:14:13.351Z,9.10
2018-11-14T05:16:44.785Z,9.10
2018-11-14T05:19:16.147Z,9.10
2018-11-14T05:21:47.487Z,9.10
2018-11-14T05:24:18.914Z,9.10
2018-11-14T05:26:50.338Z,9.10
2018-11-14T05:29:21.742Z,9.00
2018-11-14T05:31:53.162Z,9.00
2018-11-14T05:34:24.454Z,9.00
2018-11-14T05:36:55.917Z,9.00
2018-11-14T05:39:27.324Z,9.00
2018-11-14T05:41:58.804Z,9.00
2018-11-14T05:44:30.236Z,9.00
2018-11-14T05:47:01.719Z,9.00
2018-11-14T05:49:33.133Z,9.00
2018-11-14T05:52:04.518Z,9.10
2018-11-14T05:54:35.952Z,9.10
2018-11-14T05:57:07.750Z,9.10
2018-11-14T05:59:39.316Z,9.10
2018-11-14T06:02:10.956Z,9.10
2018-11-14T06:04:42.329Z,9.10
2018-11-14T06:07:13.789Z,9.00
2018-11-14T06:09:45.249Z,9.00
2018-11-14T06:12:16.642Z,9.00
2018-11-14T06:14:48.060Z,9.00
2018-11-14T06:17:19.516Z,8.90
2018-11-14T06:19:50.978Z,9.00
2018-11-14T06:22:22.362Z,8.90
2018-11-14T06:24:53.749Z,8.90
2018-11-14T06:27:25.143Z,8.90
2018-11-14T06:29:59.548Z,8.80
2018-11-14T06:32:30.948Z,8.80
2018-11-14T06:35:02.367Z,8.80
2018-11-14T06:37:33.774Z,8.80
2018-11-14T06:40:06.848Z,8.80
2018-11-14T06:42:38.406Z,8.80
2018-11-14T06:45:13.383Z,8.80
2018-11-14T06:47:46.066Z,8.80
2018-11-14T06:50:17.656Z,8.80
2018-11-14T06:52:50.119Z,8.80
2018-11-14T06:55:21.873Z,8.80
2018-11-14T06:57:53.306Z,8.80
2018-11-14T07:00:27.702Z,8.90
2018-11-14T07:02:59.992Z,8.90
2018-11-14T07:05:31.531Z,8.90
2018-11-14T07:08:03.014Z,8.90
2018-11-14T07:10:35.777Z,8.90
2018-11-14T07:13:11.454Z,9.00
2018-11-14T07:15:43.396Z,9.10
2018-11-14T07:18:14.784Z,9.10
2018-11-14T07:20:46.291Z,9.10
2018-11-14T07:23:17.668Z,9.10
2018-11-14T07:25:49.019Z,9.10
2018-11-14T07:28:20.404Z,9.10
2018-11-14T07:30:51.920Z,9.10
2018-11-14T07:33:23.257Z,9.10
2018-11-14T07:35:54.990Z,9.10
2018-11-14T07:38:43.897Z,9.20
2018-11-14T07:41:19.506Z,9.20
2018-11-14T07:43:50.956Z,9.30
2018-11-14T07:46:22.933Z,9.30
2018-11-14T07:48:58.317Z,9.40
2018-11-14T07:51:29.910Z,9.40
2018-11-14T07:54:01.544Z,9.40
2018-11-14T07:56:33.096Z,9.50
2018-11-14T07:59:04.681Z,9.50
2018-11-14T08:01:36.196Z,9.60
2018-11-14T08:04:07.696Z,9.70
2018-11-14T08:06:39.236Z,9.70
2018-11-14T08:09:10.700Z,9.80
2018-11-14T08:11:42.146Z,9.90
2018-11-14T08:14:13.674Z,9.90
2018-11-14T08:16:45.122Z,10.00
2018-11-14T08:19:16.791Z,10.10
2018-11-14T08:21:48.272Z,10.20
2018-11-14T08:24:19.804Z,10.30
2018-11-14T08:26:51.230Z,10.40
2018-11-14T08:29:22.710Z,10.50
2018-11-14T08:31:54.182Z,10.60
2018-11-14T08:34:25.628Z,10.70
2018-11-14T08:36:57.169Z,10.80
2018-11-14T08:39:28.705Z,10.90
2018-11-14T08:42:00.251Z,10.90
2018-11-14T08:44:31.991Z,11.00
2018-11-14T08:47:03.424Z,11.00
2018-11-14T08:49:34.952Z,11.00
2018-11-14T08:52:06.576Z,11.10
2018-11-14T08:54:38.078Z,11.20
2018-11-14T08:57:09.626Z,11.30
2018-11-14T08:59:41.490Z,11.30
2018-11-14T09:02:13.091Z,11.30
2018-11-14T09:04:44.717Z,11.30
2018-11-14T09:07:16.333Z,11.30
2018-11-14T09:09:47.921Z,11.40
2018-11-14T09:12:19.434Z,11.50
2018-11-14T09:14:50.884Z,11.60
2018-11-14T09:17:22.408Z,11.70
2018-11-14T09:19:54.253Z,11.70
2018-11-14T09:22:25.973Z,11.80
2018-11-14T09:24:57.461Z,11.80
2018-11-14T09:27:29.037Z,11.90
2018-11-14T09:30:00.511Z,11.90
2018-11-14T09:32:32.051Z,12.10
2018-11-14T09:35:03.574Z,12.20
2018-11-14T09:37:35.193Z,12.30
2018-11-14T09:40:08.562Z,12.30
2018-11-14T09:42:40.125Z,12.40
2018-11-14T09:45:14.977Z,12.40
2018-11-14T09:47:46.424Z,12.50
2018-11-14T09:50:20.316Z,12.60
2018-11-14T09:52:55.056Z,12.60
2018-11-14T09:55:26.560Z,12.60
2018-11-14T09:57:58.352Z,12.70
2018-11-14T10:00:31.178Z,12.70
2018-11-14T10:03:12.780Z,12.80
2018-11-14T10:05:44.340Z,12.90
2018-11-14T10:08:15.849Z,13.00
2018-11-14T10:10:47.480Z,13.10
2018-11-14T10:13:19.024Z,13.20
2018-11-14T10:15:50.598Z,13.30
2018-11-14T10:18:22.119Z,13.40
2018-11-14T10:20:53.653Z,13.50
2018-11-14T10:23:25.182Z,13.50
2018-11-14T10:25:56.670Z,13.40
2018-11-14T10:28:28.105Z,13.40
2018-11-14T10:30:59.628Z,13.40
2018-11-14T10:33:31.118Z,13.40
2018-11-14T10:36:02.558Z,13.50
2018-11-14T10:38:34.038Z,13.60
2018-11-14T10:41:05.951Z,13.60
2018-11-14T10:43:37.473Z,13.60
2018-11-14T10:46:08.957Z,13.60
2018-11-14T10:48:40.613Z,13.60
2018-11-14T10:51:12.203Z,13.70
2018-11-14T10:53:43.788Z,13.80
2018-11-14T10:56:15.524Z,13.80
2018-11-14T10:58:47.723Z,13.80
2018-11-14T11:01:24.658Z,13.90
2018-11-14T11:04:01.481Z,14.00
2018-11-14T11:06:38.262Z,14.00
2018-11-14T11:09:16.042Z,13.90
2018-11-14T11:11:52.689Z,13.90
2018-11-14T11:14:29.316Z,13.90
2018-11-14T11:17:06.051Z,14.00
2018-11-14T11:19:37.577Z,14.10
2018-11-14T11:22:09.258Z,14.20
2018-11-14T11:24:40.764Z,14.30
2018-11-14T11:27:12.431Z,14.40
2018-11-14T11:29:43.972Z,14.50
2018-11-14T11:32:15.711Z,14.60
2018-11-14T11:34:47.136Z,14.60
2018-11-14T11:37:18.681Z,14.50
2018-11-14T11:39:50.244Z,14.50
2018-11-14T11:42:21.737Z,14.60
2018-11-14T11:44:53.222Z,14.80
2018-11-14T11:47:24.702Z,14.90
2018-11-14T11:49:56.255Z,15.00
2018-11-14T11:52:27.692Z,15.10
2018-11-14T11:54:59.236Z,15.30
2018-11-14T11:57:30.790Z,15.30
2018-11-14T12:00:02.448Z,15.30
2018-11-14T12:02:33.843Z,15.20
2018-11-14T12:05:06.445Z,15.10
2018-11-14T12:07:38.000Z,15.10
2018-11-14T12:10:11.160Z,15.20
2018-11-14T12:12:43.614Z,15.30
2018-11-14T12:15:15.436Z,15.40
2018-11-14T12:17:46.982Z,15.60
2018-11-14T12:20:18.380Z,15.70
2018-11-14T12:22:49.934Z,15.60
2018-11-14T12:25:21.482Z,15.70
2018-11-14T12:27:52.992Z,15.80
2018-11-14T12:30:24.510Z,16.10
2018-11-14T12:32:55.890Z,16.30
2018-11-14T12:35:27.575Z,16.40
2018-11-14T12:37:59.095Z,16.50
2018-11-14T12:40:30.661Z,16.50
2018-11-14T12:43:02.309Z,16.40
2018-11-14T12:45:33.893Z,16.30
2018-11-14T12:48:05.689Z,16.30
2018-11-14T12:50:37.111Z,16.30
2018-11-14T12:53:08.633Z,16.20
2018-11-14T12:55:40.076Z,16.20
2018-11-14T12:58:11.520Z,16.10
2018-11-14T13:00:43.051Z,16.10
2018-11-14T13:03:14.657Z,16.00
2018-11-14T13:05:46.216Z,16.00
2018-11-14T13:08:17.764Z,16.10
2018-11-14T13:10:49.472Z,16.20
2018-11-14T13:13:20.924Z,16.20
2018-11-14T13:15:52.383Z,16.20
2018-11-14T13:18:23.864Z,16.10
2018-11-14T13:20:55.435Z,16.10
2018-11-14T13:23:26.864Z,16.10
2018-11-14T13:25:58.402Z,16.10
2018-11-14T13:28:29.842Z,16.00
2018-11-14T13:31:01.291Z,16.00
2018-11-14T13:33:32.750Z,16.20
2018-11-14T13:36:04.231Z,16.90
2018-11-14T13:38:35.711Z,18.10
2018-11-14T13:41:07.267Z,19.40
2018-11-14T13:43:38.796Z,20.50
2018-11-14T13:46:10.230Z,21.40
2018-11-14T13:48:41.716Z,22.10
2018-11-14T13:51:13.156Z,22.50
2018-11-14T13:53:44.466Z,22.80
2018-11-14T13:56:15.892Z,22.80
2018-11-14T13:58:47.335Z,22.80
2018-11-14T14:01:18.904Z,23.00
2018-11-14T14:03:50.305Z,23.20
2018-11-14T14:06:21.707Z,23.50
2018-11-14T14:08:53.068Z,23.70
2018-11-14T14:11:24.470Z,23.80
2018-11-14T14:14:01.099Z,23.70
2018-11-14T14:16:32.576Z,23.50
2018-11-14T14:19:03.962Z,23.20
2018-11-14T14:21:35.401Z,23.00
2018-11-14T14:24:07.338Z,22.80
2018-11-14T14:26:39.650Z,22.30
2018-11-14T14:29:11.173Z,21.70
2018-11-14T14:31:42.622Z,21.20
2018-11-14T14:34:14.056Z,20.80
2018-11-14T14:36:45.494Z,20.50
2018-11-14T14:39:16.880Z,20.20
2018-11-14T14:41:48.374Z,19.90
2018-11-14T14:44:19.846Z,19.50
2018-11-14T14:46:51.239Z,19.10
2018-11-14T14:49:22.659Z,18.70
2018-11-14T14:51:54.008Z,18.40
2018-11-14T14:54:25.449Z,18.10
2018-11-14T14:56:56.904Z,17.80
2018-11-14T14:59:28.279Z,17.60
2018-11-14T15:01:59.697Z,17.30
2018-11-14T15:04:31.204Z,17.10
2018-11-14T15:07:02.616Z,16.90
2018-11-14T15:09:34.127Z,16.70
2018-11-14T15:12:05.822Z,16.60
2018-11-14T15:14:37.215Z,16.40
2018-11-14T15:17:08.670Z,16.20
2018-11-14T15:19:40.159Z,16.00
2018-11-14T15:22:11.653Z,15.90
2018-11-14T15:24:43.089Z,15.70
2018-11-14T15:27:14.642Z,15.60
2018-11-14T15:29:45.994Z,15.40
2018-11-14T15:32:17.447Z,15.30
2018-11-14T15:34:48.787Z,15.20
2018-11-14T15:37:20.221Z,15.10
2018-11-14T15:39:51.734Z,15.00
2018-11-14T15:42:23.136Z,14.90
2018-11-14T15:44:54.515Z,14.80
2018-11-14T15:47:25.951Z,14.70
2018-11-14T15:49:57.362Z,14.60
2018-11-14T15:52:28.805Z,14.50
2018-11-14T15:55:00.255Z,14.50
2018-11-14T15:57:31.761Z,14.40
2018-11-14T16:00:03.190Z,14.30
2018-11-14T16:02:34.622Z,14.20
2018-11-14T16:05:08.224Z,14.10
2018-11-14T16:07:40.351Z,14.10
2018-11-14T16:10:13.081Z,14.00
2018-11-14T16:12:44.888Z,13.90
2018-11-14T16:15:17.796Z,13.80
2018-11-14T16:17:49.209Z,13.70
2018-11-14T16:20:21.948Z,13.70
2018-11-14T16:22:53.483Z,13.60
2018-11-14T16:25:25.793Z,13.60
2018-11-14T16:27:58.532Z,13.50
2018-11-14T16:30:34.176Z,13.50
2018-11-14T16:33:07.035Z,13.50
2018-11-14T16:42:09.133Z,13.30
2018-11-14T16:44:40.697Z,13.20
2018-11-14T16:47:12.167Z,13.20
2018-11-14T16:49:43.556Z,13.10
2018-11-14T16:52:14.992Z,13.00
2018-11-14T16:54:46.453Z,13.00
2018-11-14T16:57:17.870Z,12.90
2018-11-14T16:59:49.351Z,12.90
2018-11-14T17:02:20.930Z,12.80
2018-11-14T17:04:52.724Z,12.80
2018-11-14T17:07:24.133Z,12.80
2018-11-14T17:09:55.634Z,12.80
2018-11-14T17:12:27.186Z,12.80
2018-11-14T17:14:58.660Z,12.70
2018-11-14T17:17:30.097Z,12.70
2018-11-14T17:20:01.470Z,12.70
2018-11-14T17:22:33.035Z,12.60
2018-11-14T17:25:04.558Z,12.50
2018-11-14T17:27:36.081Z,12.50
2018-11-14T17:30:11.312Z,12.50
2018-11-14T17:32:43.391Z,12.40
2018-11-14T17:35:15.730Z,12.40
2018-11-14T17:37:47.610Z,12.40
2018-11-14T17:40:23.085Z,12.30
2018-11-14T17:42:54.913Z,12.30
2018-11-14T17:45:29.949Z,12.30
2018-11-14T17:48:01.503Z,12.30
2018-11-14T17:50:34.249Z,12.20
2018-11-14T17:53:05.917Z,12.20
2018-11-14T17:55:37.392Z,12.20
2018-11-14T17:58:08.864Z,12.10
2018-11-14T18:00:40.253Z,12.10
2018-11-14T18:03:11.826Z,12.10
2018-11-14T18:05:43.184Z,12.00
2018-11-14T18:08:14.579Z,12.00
2018-11-14T18:10:46.004Z,12.00
2018-11-14T18:13:17.549Z,12.00
2018-11-14T18:15:48.995Z,12.00
2018-11-14T18:18:20.555Z,11.90
2018-11-14T18:20:52.238Z,11.90
2018-11-14T18:23:23.663Z,11.80
2018-11-14T18:25:55.164Z,11.80
2018-11-14T18:28:26.679Z,11.80
2018-11-14T18:30:58.146Z,11.80
2018-11-14T18:33:29.608Z,11.80
2018-11-14T18:36:01.088Z,11.80
2018-11-14T18:38:32.606Z,11.80
2018-11-14T18:41:04.206Z,11.70
2018-11-14T18:43:35.724Z,11.70
2018-11-14T18:46:07.423Z,11.70
2018-11-14T18:48:38.952Z,11.70
2018-11-14T18:51:10.446Z,11.70
2018-11-14T18:53:41.988Z,11.70
2018-11-14T18:56:13.428Z,11.70
2018-11-14T18:58:45.062Z,11.70
2018-11-14T19:01:16.636Z,11.70
2018-11-14T19:03:48.192Z,11.60
2018-11-14T19:06:19.925Z,11.60
2018-11-14T19:08:51.588Z,11.60
2018-11-14T19:11:23.022Z,11.60
2018-11-14T19:13:54.633Z,11.60
2018-11-14T19:16:26.209Z,11.60
2018-11-14T19:18:57.829Z,11.50
2018-11-14T19:24:06.452Z,11.50
2018-11-14T19:26:37.927Z,11.50
2018-11-14T19:29:09.209Z,11.50
2018-11-14T19:31:40.663Z,11.50
2018-11-14T19:34:12.169Z,11.50
2018-11-14T19:36:43.722Z,11.50
2018-11-14T19:39:15.144Z,11.40
2018-11-14T19:41:46.846Z,11.40
2018-11-14T19:44:18.423Z,11.40
2018-11-14T19:46:49.926Z,11.40
2018-11-14T19:49:21.778Z,11.40
2018-11-14T19:51:53.453Z,11.40
2018-11-14T19:54:25.190Z,11.40
2018-11-14T19:56:56.691Z,11.40
2018-11-14T19:59:28.166Z,11.40
2018-11-14T20:01:59.828Z,11.40
2018-11-14T20:04:31.343Z,11.40
2018-11-14T20:07:02.766Z,11.40
2018-11-14T20:09:34.267Z,11.40
2018-11-14T20:12:05.903Z,11.30
2018-11-14T20:14:37.315Z,11.30
2018-11-14T20:17:08.741Z,11.30
2018-11-14T20:19:40.304Z,11.30
2018-11-14T20:22:11.980Z,11.30
2018-11-14T20:24:43.462Z,11.30
2018-11-14T20:27:15.012Z,11.30
2018-11-14T20:29:46.562Z,11.30
2018-11-14T20:32:18.078Z,11.30
2018-11-14T20:34:49.599Z,11.20
2018-11-14T20:37:21.226Z,11.20
2018-11-14T20:39:52.766Z,11.20
2018-11-14T20:42:24.528Z,11.20
2018-11-14T20:44:56.156Z,11.20
2018-11-14T20:47:27.694Z,11.20
2018-11-14T20:49:59.208Z,11.20
2018-11-14T20:52:31.007Z,11.20
2018-11-14T20:55:02.541Z,11.20
2018-11-14T20:57:34.033Z,11.10
2018-11-14T21:00:07.126Z,11.10
2018-11-14T21:02:39.569Z,11.10
2018-11-14T21:05:12.191Z,11.10
2018-11-14T21:07:44.193Z,11.10
2018-11-14T21:10:18.008Z,11.10
2018-11-14T21:12:50.618Z,11.10
2018-11-14T21:15:39.651Z,11.00
2018-11-14T21:18:11.360Z,11.10
2018-11-14T21:20:44.946Z,11.00
2018-11-14T21:23:16.958Z,11.00
2018-11-14T21:25:48.562Z,11.10
2018-11-14T21:28:20.270Z,11.00
2018-11-14T21:30:52.945Z,11.00
2018-11-14T21:33:24.597Z,11.00
2018-11-14T21:35:56.309Z,11.00
2018-11-14T21:38:27.864Z,11.00
2018-11-14T21:40:59.639Z,10.90
2018-11-14T21:43:31.378Z,10.90
2018-11-14T21:46:03.221Z,10.90
2018-11-14T21:48:35.083Z,10.90
2018-11-14T21:51:17.686Z,10.90
2018-11-14T21:53:49.279Z,10.90
2018-11-14T21:56:20.971Z,10.90
2018-11-14T21:58:52.577Z,10.90
2018-11-14T22:01:24.193Z,10.80
2018-11-14T22:03:55.867Z,10.80
2018-11-14T22:06:27.455Z,10.80
2018-11-14T22:08:59.147Z,10.80
2018-11-14T22:11:30.871Z,10.80
2018-11-14T22:14:02.568Z,10.80
2018-11-14T22:16:34.177Z,10.80
2018-11-14T22:19:06.309Z,10.80
2018-11-14T22:21:38.082Z,10.70
2018-11-14T22:24:09.706Z,10.70
2018-11-14T22:26:41.360Z,10.70
2018-11-14T22:29:13.063Z,10.70
2018-11-14T22:31:44.880Z,10.70
2018-11-14T22:34:16.372Z,10.70
2018-11-14T22:36:48.263Z,10.70
2018-11-14T22:39:20.023Z,10.70
2018-11-14T22:41:52.010Z,10.70
2018-11-14T22:44:23.427Z,10.60
2018-11-14T22:46:55.344Z,10.60
2018-11-14T22:49:26.747Z,10.60
2018-11-14T22:51:58.321Z,10.60
2018-11-14T22:54:29.720Z,10.50
2018-11-14T22:57:01.117Z,10.50
2018-11-14T22:59:32.543Z,10.50
2018-11-14T23:02:04.045Z,10.50
2018-11-14T23:04:35.556Z,10.50
2018-11-14T23:07:07.234Z,10.40
2018-11-14T23:09:39.640Z,10.40
2018-11-14T23:12:11.104Z,10.40
2018-11-14T23:14:42.738Z,10.40
2018-11-14T23:17:14.354Z,10.40
2018-11-14T23:19:45.798Z,10.30
2018-11-14T23:22:17.225Z,10.30
2018-11-14T23:24:48.680Z,10.30
2018-11-14T23:27:20.157Z,10.30
2018-11-14T23:29:51.886Z,10.20
2018-11-14T23:32:23.269Z,10.20
2018-11-14T23:34:59.881Z,10.20
2018-11-14T23:37:31.312Z,10.10
2018-11-14T23:40:02.699Z,10.10
2018-11-14T23:42:34.168Z,10.10
2018-11-14T23:45:07.536Z,10.10
2018-11-14T23:47:39.067Z,10.10
2018-11-14T23:50:13.639Z,10.00
2018-11-14T23:52:46.258Z,10.00
2018-11-14T23:55:18.588Z,10.00
2018-11-14T23:57:50.180Z,10.00
